createdAt,value
2018-08-13T00:00:20.577Z,21.89
2018-08-13T00:01:20.738Z,21.89
2018-08-13T00:02:20.798Z,21.88
2018-08-13T00:03:20.578Z,21.88
2018-08-13T00:04:20.657Z,21.82
2018-08-13T00:05:20.586Z,21.81
2018-08-13T00:06:20.593Z,21.81
2018-08-13T00:07:20.599Z,21.81
2018-08-13T00:08:20.650Z,21.81
2018-08-13T00:09:20.571Z,21.84
2018-08-13T00:10:20.726Z,21.82
2018-08-13T00:11:20.597Z,21.84
2018-08-13T00:12:20.667Z,21.82
2018-08-13T00:13:20.719Z,21.82
2018-08-13T00:14:20.625Z,21.85
2018-08-13T00:15:20.637Z,21.85
2018-08-13T00:16:20.604Z,21.86
2018-08-13T00:17:20.634Z,21.84
2018-08-13T00:18:20.601Z,21.82
2018-08-13T00:19:20.626Z,21.84
2018-08-13T00:20:20.611Z,21.84
2018-08-13T00:21:20.634Z,21.81
2018-08-13T00:22:20.580Z,21.82
2018-08-13T00:23:20.609Z,21.82
2018-08-13T00:24:20.584Z,21.79
2018-08-13T00:25:20.624Z,21.81
2018-08-13T00:26:20.604Z,21.81
2018-08-13T00:27:20.642Z,21.79
2018-08-13T00:28:20.591Z,21.74
2018-08-13T00:29:20.602Z,21.78
2018-08-13T00:30:20.639Z,21.74
2018-08-13T00:31:20.621Z,21.74
2018-08-13T00:32:20.652Z,21.74
2018-08-13T00:33:20.649Z,21.74
2018-08-13T00:34:20.609Z,21.69
2018-08-13T00:35:20.640Z,21.69
2018-08-13T00:36:20.638Z,21.68
2018-08-13T00:37:20.657Z,21.64
2018-08-13T00:38:20.687Z,21.64
2018-08-13T00:39:20.688Z,21.61
2018-08-13T00:40:20.709Z,21.6
2018-08-13T00:41:20.662Z,21.57
2018-08-13T00:42:20.619Z,21.57
2018-08-13T00:43:20.820Z,21.54
2018-08-13T00:44:20.650Z,21.53
2018-08-13T00:45:20.708Z,21.53
2018-08-13T00:46:20.981Z,21.54
2018-08-13T00:47:20.872Z,21.53
2018-08-13T00:48:20.651Z,21.49
2018-08-13T00:49:20.629Z,21.5
2018-08-13T00:50:20.666Z,21.44
2018-08-13T00:51:20.684Z,21.43
2018-08-13T00:52:20.643Z,21.34
2018-08-13T00:53:20.636Z,21.33
2018-08-13T00:54:20.647Z,21.33
2018-08-13T00:55:20.631Z,21.27
2018-08-13T00:56:20.645Z,21.27
2018-08-13T00:57:20.686Z,21.27
2018-08-13T00:58:20.722Z,21.29
2018-08-13T00:59:20.773Z,21.27
2018-08-13T01:00:20.861Z,21.27
2018-08-13T01:01:20.688Z,21.27
2018-08-13T01:02:20.650Z,21.27
2018-08-13T01:03:20.686Z,21.3
2018-08-13T01:04:20.645Z,21.26
2018-08-13T01:05:20.696Z,21.24
2018-08-13T01:06:20.724Z,21.24
2018-08-13T01:07:20.685Z,21.22
2018-08-13T01:08:20.692Z,21.19
2018-08-13T01:09:20.762Z,21.17
2018-08-13T01:10:20.792Z,21.17
2018-08-13T01:11:20.682Z,21.15
2018-08-13T01:12:20.727Z,21.13
2018-08-13T01:13:20.636Z,21.13
2018-08-13T01:14:20.915Z,21.13
2018-08-13T01:15:20.692Z,21.12
2018-08-13T01:16:20.809Z,21.12
2018-08-13T01:17:20.705Z,21.12
2018-08-13T01:18:20.747Z,21.09
2018-08-13T01:19:20.682Z,21.09
2018-08-13T01:20:20.878Z,21.05
2018-08-13T01:21:20.756Z,21.01
2018-08-13T01:22:20.754Z,21.01
2018-08-13T01:23:20.792Z,20.96
2018-08-13T01:24:20.702Z,20.96
2018-08-13T01:25:20.980Z,20.91
2018-08-13T01:26:20.680Z,20.91
2018-08-13T01:27:20.695Z,20.88
2018-08-13T01:28:20.885Z,20.85
2018-08-13T01:29:20.880Z,20.89
2018-08-13T01:30:20.921Z,20.87
2018-08-13T01:31:20.878Z,20.87
2018-08-13T01:32:20.947Z,20.82
2018-08-13T01:33:20.698Z,20.84
2018-08-13T01:34:20.745Z,20.81
2018-08-13T01:35:20.739Z,20.82
2018-08-13T01:36:20.686Z,20.84
2018-08-13T01:37:20.743Z,20.81
2018-08-13T01:38:20.700Z,20.82
2018-08-13T01:39:20.736Z,20.82
2018-08-13T01:40:20.742Z,20.79
2018-08-13T01:41:20.980Z,20.81
2018-08-13T01:42:20.674Z,20.82
2018-08-13T01:43:20.694Z,20.79
2018-08-13T01:44:20.713Z,20.77
2018-08-13T01:45:20.751Z,20.79
2018-08-13T01:46:20.698Z,20.75
2018-08-13T01:47:20.693Z,20.74
2018-08-13T01:48:20.708Z,20.68
2018-08-13T01:49:20.716Z,20.65
2018-08-13T01:50:21.562Z,20.65
2018-08-13T01:51:20.772Z,20.65
2018-08-13T01:52:20.754Z,20.65
2018-08-13T01:53:20.717Z,20.61
2018-08-13T01:54:20.742Z,20.64
2018-08-13T01:55:20.715Z,20.62
2018-08-13T01:56:20.715Z,20.61
2018-08-13T01:57:20.736Z,20.6
2018-08-13T01:58:20.727Z,20.61
2018-08-13T01:59:20.803Z,20.6
2018-08-13T02:00:20.942Z,20.55
2018-08-13T02:01:21.128Z,20.54
2018-08-13T02:02:20.706Z,20.51
2018-08-13T02:03:21.029Z,20.52
2018-08-13T02:04:20.955Z,20.5
2018-08-13T02:05:20.744Z,20.48
2018-08-13T02:06:20.884Z,20.48
2018-08-13T02:07:20.831Z,20.46
2018-08-13T02:08:20.994Z,20.44
2018-08-13T02:09:21.061Z,20.43
2018-08-13T02:10:20.770Z,20.44
2018-08-13T02:11:20.864Z,20.44
2018-08-13T02:12:20.744Z,20.44
2018-08-13T02:13:20.732Z,20.41
2018-08-13T02:14:20.900Z,20.4
2018-08-13T02:15:20.766Z,20.33
2018-08-13T02:16:20.757Z,20.33
2018-08-13T02:17:20.720Z,20.29
2018-08-13T02:18:20.818Z,20.26
2018-08-13T02:19:20.754Z,20.22
2018-08-13T02:20:20.740Z,20.23
2018-08-13T02:21:20.739Z,20.23
2018-08-13T02:22:20.804Z,20.23
2018-08-13T02:23:20.798Z,20.24
2018-08-13T02:24:20.828Z,20.24
2018-08-13T02:25:21.059Z,20.24
2018-08-13T02:26:21.037Z,20.24
2018-08-13T02:27:20.833Z,20.24
2018-08-13T02:28:20.805Z,20.26
2018-08-13T02:29:20.941Z,20.23
2018-08-13T02:30:21.422Z,20.23
2018-08-13T02:31:20.765Z,20.23
2018-08-13T02:32:20.856Z,20.24
2018-08-13T02:33:20.961Z,20.19
2018-08-13T02:34:20.844Z,20.19
2018-08-13T02:35:21.700Z,20.15
2018-08-13T02:36:20.783Z,20.16
2018-08-13T02:37:21.065Z,20.15
2018-08-13T02:38:20.823Z,20.12
2018-08-13T02:39:21.323Z,20.04
2018-08-13T02:40:20.768Z,20.05
2018-08-13T02:41:20.768Z,20.05
2018-08-13T02:42:21.742Z,20.05
2018-08-13T02:43:20.792Z,20.01
2018-08-13T02:44:20.772Z,19.96
2018-08-13T02:45:20.809Z,19.96
2018-08-13T02:46:20.866Z,19.93
2018-08-13T02:47:21.133Z,19.93
2018-08-13T02:48:21.046Z,19.92
2018-08-13T02:49:21.012Z,19.93
2018-08-13T02:50:20.780Z,19.89
2018-08-13T02:51:20.773Z,19.88
2018-08-13T02:52:20.805Z,19.89
2018-08-13T02:53:20.814Z,19.89
2018-08-13T02:54:20.789Z,19.85
2018-08-13T02:55:20.861Z,19.86
2018-08-13T02:56:20.831Z,19.88
2018-08-13T02:57:20.819Z,19.88
2018-08-13T02:58:21.029Z,19.88
2018-08-13T02:59:20.819Z,19.86
2018-08-13T03:00:20.823Z,19.88
2018-08-13T03:01:20.801Z,19.86
2018-08-13T03:02:20.779Z,19.84
2018-08-13T03:03:20.885Z,19.84
2018-08-13T03:04:20.858Z,19.79
2018-08-13T03:05:20.815Z,19.78
2018-08-13T03:06:20.813Z,19.79
2018-08-13T03:07:20.805Z,19.75
2018-08-13T03:08:20.819Z,19.77
2018-08-13T03:09:20.789Z,19.74
2018-08-13T03:10:20.809Z,19.72
2018-08-13T03:11:20.805Z,19.74
2018-08-13T03:12:20.846Z,19.72
2018-08-13T03:13:20.841Z,19.71
2018-08-13T03:14:20.845Z,19.74
2018-08-13T03:15:20.852Z,19.75
2018-08-13T03:16:20.916Z,19.75
2018-08-13T03:17:21.578Z,19.74
2018-08-13T03:18:21.064Z,19.75
2018-08-13T03:19:20.858Z,19.72
2018-08-13T03:20:20.900Z,19.74
2018-08-13T03:21:22.490Z,19.75
2018-08-13T03:22:21.016Z,19.74
2018-08-13T03:23:21.009Z,19.75
2018-08-13T03:24:21.254Z,19.75
2018-08-13T03:25:20.994Z,19.74
2018-08-13T03:26:20.923Z,19.75
2018-08-13T03:27:20.891Z,19.75
2018-08-13T03:28:20.890Z,19.75
2018-08-13T03:29:20.989Z,19.77
2018-08-13T03:30:21.734Z,19.75
2018-08-13T03:31:21.101Z,19.78
2018-08-13T03:32:21.006Z,19.78
2018-08-13T03:33:21.033Z,19.79
2018-08-13T03:34:20.960Z,19.81
2018-08-13T03:35:21.031Z,19.84
2018-08-13T03:36:21.002Z,19.82
2018-08-13T03:37:21.016Z,19.85
2018-08-13T03:38:20.992Z,19.84
2018-08-13T03:39:21.054Z,19.86
2018-08-13T03:40:20.941Z,19.91
2018-08-13T03:41:20.960Z,19.92
2018-08-13T03:42:20.943Z,19.92
2018-08-13T03:43:20.835Z,19.96
2018-08-13T03:44:20.842Z,19.99
2018-08-13T03:45:20.873Z,19.99
2018-08-13T03:46:20.870Z,20.01
2018-08-13T03:47:20.864Z,20.05
2018-08-13T03:48:21.001Z,20.08
2018-08-13T03:49:20.849Z,20.11
2018-08-13T03:50:20.859Z,20.09
2018-08-13T03:51:20.999Z,20.11
2018-08-13T03:52:20.925Z,20.15
2018-08-13T03:53:20.924Z,20.13
2018-08-13T03:54:20.955Z,20.15
2018-08-13T03:55:20.857Z,20.17
2018-08-13T03:56:20.891Z,20.17
2018-08-13T03:57:20.950Z,20.19
2018-08-13T03:58:20.879Z,20.22
2018-08-13T03:59:20.925Z,20.22
2018-08-13T04:00:20.957Z,20.2
2018-08-13T04:01:20.871Z,20.23
2018-08-13T04:02:20.957Z,20.24
2018-08-13T04:03:20.973Z,20.22
2018-08-13T04:04:20.977Z,20.22
2018-08-13T04:05:21.206Z,20.22
2018-08-13T04:06:20.935Z,20.24
2018-08-13T04:07:20.998Z,20.23
2018-08-13T04:08:21.024Z,20.2
2018-08-13T04:09:20.901Z,20.23
2018-08-13T04:10:21.030Z,20.23
2018-08-13T04:11:20.980Z,20.24
2018-08-13T04:12:20.912Z,20.22
2018-08-13T04:13:20.989Z,20.2
2018-08-13T04:14:20.945Z,20.19
2018-08-13T04:15:20.968Z,20.19
2018-08-13T04:16:20.903Z,20.19
2018-08-13T04:17:20.904Z,20.19
2018-08-13T04:18:21.071Z,20.17
2018-08-13T04:19:21.004Z,20.16
2018-08-13T04:20:21.699Z,20.16
2018-08-13T04:21:20.891Z,20.16
2018-08-13T04:22:20.895Z,20.19
2018-08-13T04:23:22.096Z,20.16
2018-08-13T04:24:20.889Z,20.15
2018-08-13T04:25:20.908Z,20.13
2018-08-13T04:26:21.251Z,20.13
2018-08-13T04:27:20.917Z,20.13
2018-08-13T04:28:21.244Z,20.13
2018-08-13T04:29:20.958Z,20.11
2018-08-13T04:30:20.911Z,20.13
2018-08-13T04:31:20.909Z,20.12
2018-08-13T04:32:20.902Z,20.11
2018-08-13T04:33:20.950Z,20.09
2018-08-13T04:34:20.890Z,20.06
2018-08-13T04:35:20.910Z,20.05
2018-08-13T04:36:21.051Z,20.04
2018-08-13T04:37:20.918Z,19.99
2018-08-13T04:38:20.922Z,19.95
2018-08-13T04:39:20.941Z,19.92
2018-08-13T04:40:20.906Z,19.95
2018-08-13T04:41:20.942Z,19.91
2018-08-13T04:42:20.931Z,19.91
2018-08-13T04:43:21.038Z,19.91
2018-08-13T04:44:21.015Z,19.91
2018-08-13T04:45:21.040Z,19.89
2018-08-13T04:46:21.056Z,19.84
2018-08-13T04:47:21.086Z,19.82
2018-08-13T04:48:21.202Z,19.84
2018-08-13T04:49:20.919Z,19.86
2018-08-13T04:50:20.928Z,19.85
2018-08-13T04:51:20.938Z,19.84
2018-08-13T04:52:20.954Z,19.82
2018-08-13T04:53:20.952Z,19.84
2018-08-13T04:54:21.112Z,19.85
2018-08-13T04:55:21.018Z,19.84
2018-08-13T04:56:20.975Z,19.82
2018-08-13T04:57:20.941Z,19.82
2018-08-13T04:58:20.995Z,19.84
2018-08-13T04:59:20.972Z,19.81
2018-08-13T05:00:20.992Z,19.84
2018-08-13T05:01:21.003Z,19.82
2018-08-13T05:02:20.986Z,19.81
2018-08-13T05:03:20.972Z,19.81
2018-08-13T05:04:20.989Z,19.82
2018-08-13T05:05:21.009Z,19.84
2018-08-13T05:06:21.083Z,19.84
2018-08-13T05:07:21.179Z,19.85
2018-08-13T05:08:21.018Z,19.86
2018-08-13T05:09:20.955Z,19.86
2018-08-13T05:10:20.942Z,19.89
2018-08-13T05:11:20.965Z,19.89
2018-08-13T05:12:20.973Z,19.89
2018-08-13T05:13:20.950Z,19.92
2018-08-13T05:14:20.969Z,19.91
2018-08-13T05:15:21.007Z,19.92
2018-08-13T05:16:21.035Z,19.93
2018-08-13T05:17:21.042Z,19.93
2018-08-13T05:18:21.067Z,19.96
2018-08-13T05:19:21.016Z,19.98
2018-08-13T05:20:21.019Z,19.99
2018-08-13T05:21:21.104Z,19.99
2018-08-13T05:22:20.999Z,20.02
2018-08-13T05:23:21.039Z,20.04
2018-08-13T05:24:21.035Z,20.01
2018-08-13T05:25:21.191Z,20.04
2018-08-13T05:26:21.025Z,20.02
2018-08-13T05:27:21.133Z,20.04
2018-08-13T05:28:21.370Z,20.06
2018-08-13T05:29:21.228Z,20.06
2018-08-13T05:30:22.482Z,20.06
2018-08-13T05:31:21.013Z,20.09
2018-08-13T05:32:21.001Z,20.08
2018-08-13T05:33:21.975Z,20.08
2018-08-13T05:34:21.128Z,20.08
2018-08-13T05:35:21.013Z,20.06
2018-08-13T05:36:21.691Z,20.06
2018-08-13T05:37:21.358Z,20.05
2018-08-13T05:38:21.293Z,20.05
2018-08-13T05:39:20.993Z,20.02
2018-08-13T05:40:21.044Z,20.02
2018-08-13T05:41:21.002Z,20.02
2018-08-13T05:42:20.999Z,20.05
2018-08-13T05:43:20.994Z,20.04
2018-08-13T05:44:21.018Z,20.04
2018-08-13T05:45:21.056Z,20.04
2018-08-13T05:46:20.999Z,20.05
2018-08-13T05:47:21.170Z,20.05
2018-08-13T05:48:21.020Z,20.06
2018-08-13T05:49:21.032Z,20.06
2018-08-13T05:50:21.007Z,20.06
2018-08-13T05:51:21.016Z,20.08
2018-08-13T05:52:21.054Z,20.06
2018-08-13T05:53:21.002Z,20.06
2018-08-13T05:54:21.063Z,20.09
2018-08-13T05:55:21.072Z,20.09
2018-08-13T05:56:21.103Z,20.05
2018-08-13T05:57:21.024Z,20.08
2018-08-13T05:58:21.342Z,20.01
2018-08-13T05:59:20.997Z,20.02
2018-08-13T06:00:21.052Z,20.05
2018-08-13T06:01:21.053Z,20.05
2018-08-13T06:02:21.124Z,19.98
2018-08-13T06:03:21.091Z,19.95
2018-08-13T06:04:23.395Z,19.93
2018-08-13T06:05:21.401Z,19.93
2018-08-13T06:06:21.007Z,19.98
2018-08-13T06:07:21.067Z,19.98
2018-08-13T06:08:21.055Z,20.01
2018-08-13T06:09:21.019Z,20.04
2018-08-13T06:10:22.858Z,20.04
2018-08-13T06:11:22.843Z,20.05
2018-08-13T06:12:21.011Z,20.11
2018-08-13T06:13:21.021Z,20.11
2018-08-13T06:14:21.019Z,20.13
2018-08-13T06:15:21.039Z,20.15
2018-08-13T06:16:21.055Z,20.17
2018-08-13T06:17:21.025Z,20.17
2018-08-13T06:18:21.038Z,20.19
2018-08-13T06:19:21.077Z,20.2
2018-08-13T06:20:21.110Z,20.2
2018-08-13T06:21:21.134Z,20.24
2018-08-13T06:22:21.265Z,20.29
2018-08-13T06:23:21.083Z,20.3
2018-08-13T06:24:21.630Z,20.36
2018-08-13T06:25:21.051Z,20.33
2018-08-13T06:26:21.046Z,20.39
2018-08-13T06:27:21.754Z,20.34
2018-08-13T06:28:21.213Z,20.39
2018-08-13T06:29:21.476Z,20.34
2018-08-13T06:30:21.059Z,20.19
2018-08-13T06:31:21.200Z,20.24
2018-08-13T06:32:21.099Z,20.2
2018-08-13T06:33:21.138Z,20.12
2018-08-13T06:34:21.256Z,20.19
2018-08-13T06:35:21.074Z,20.22
2018-08-13T06:36:21.183Z,20.22
2018-08-13T06:37:21.604Z,20.17
2018-08-13T06:38:21.049Z,20.22
2018-08-13T06:39:21.127Z,20.26
2018-08-13T06:40:21.079Z,20.19
2018-08-13T06:41:21.870Z,20.26
2018-08-13T06:42:21.309Z,20.33
2018-08-13T06:43:21.122Z,20.37
2018-08-13T06:44:21.267Z,20.44
2018-08-13T06:45:21.034Z,20.5
2018-08-13T06:46:21.934Z,20.52
2018-08-13T06:47:21.125Z,20.58
2018-08-13T06:48:21.444Z,20.62
2018-08-13T06:49:21.722Z,20.68
2018-08-13T06:50:21.248Z,20.65
2018-08-13T06:51:21.084Z,20.68
2018-08-13T06:52:21.135Z,20.74
2018-08-13T06:53:21.316Z,20.72
2018-08-13T06:54:21.173Z,20.78
2018-08-13T06:55:22.123Z,20.79
2018-08-13T06:56:21.164Z,20.79
2018-08-13T06:57:21.225Z,20.82
2018-08-13T06:58:21.105Z,20.85
2018-08-13T06:59:21.311Z,20.87
2018-08-13T07:00:21.121Z,20.88
2018-08-13T07:01:21.120Z,20.89
2018-08-13T07:02:21.193Z,20.89
2018-08-13T07:03:21.779Z,20.88
2018-08-13T07:04:21.206Z,20.91
2018-08-13T07:05:21.145Z,20.92
2018-08-13T07:06:21.132Z,20.92
2018-08-13T07:07:21.097Z,20.96
2018-08-13T07:08:21.129Z,20.96
2018-08-13T07:09:21.168Z,20.99
2018-08-13T07:10:21.112Z,21.01
2018-08-13T07:11:21.092Z,21.03
2018-08-13T07:12:21.154Z,21.03
2018-08-13T07:13:21.106Z,21.06
2018-08-13T07:14:21.111Z,21.1
2018-08-13T07:15:21.132Z,21.13
2018-08-13T07:16:21.450Z,21.12
2018-08-13T07:17:21.184Z,21.15
2018-08-13T07:18:21.139Z,21.15
2018-08-13T07:19:21.145Z,21.16
2018-08-13T07:20:21.130Z,21.19
2018-08-13T07:21:21.165Z,21.17
2018-08-13T07:22:21.759Z,21.16
2018-08-13T07:23:21.150Z,21.2
2018-08-13T07:24:22.004Z,21.22
2018-08-13T07:25:21.135Z,21.22
2018-08-13T07:26:21.115Z,21.23
2018-08-13T07:27:21.162Z,21.24
2018-08-13T07:28:21.204Z,21.26
2018-08-13T07:29:21.098Z,21.27
2018-08-13T07:30:21.175Z,21.3
2018-08-13T07:31:21.160Z,21.3
2018-08-13T07:32:21.139Z,21.32
2018-08-13T07:33:21.233Z,21.29
2018-08-13T07:34:21.211Z,21.3
2018-08-13T07:35:21.274Z,21.29
2018-08-13T07:36:21.126Z,21.3
2018-08-13T07:37:21.101Z,21.32
2018-08-13T07:38:21.862Z,21.29
2018-08-13T07:39:21.639Z,21.3
2018-08-13T07:40:21.149Z,21.34
2018-08-13T07:41:21.383Z,21.33
2018-08-13T07:42:21.145Z,21.34
2018-08-13T07:43:21.114Z,21.36
2018-08-13T07:44:21.155Z,21.37
2018-08-13T07:45:21.131Z,21.37
2018-08-13T07:46:21.329Z,21.37
2018-08-13T07:47:21.155Z,21.39
2018-08-13T07:48:21.224Z,21.39
2018-08-13T07:49:21.253Z,21.39
2018-08-13T07:50:21.198Z,21.4
2018-08-13T07:51:21.122Z,21.4
2018-08-13T07:52:21.242Z,21.41
2018-08-13T07:53:21.186Z,21.43
2018-08-13T07:54:21.180Z,21.4
2018-08-13T07:55:21.236Z,21.4
2018-08-13T07:56:21.209Z,21.4
2018-08-13T07:57:21.206Z,21.41
2018-08-13T07:58:21.175Z,21.4
2018-08-13T07:59:21.219Z,21.41
2018-08-13T08:00:21.248Z,21.4
2018-08-13T08:01:21.235Z,21.39
2018-08-13T08:02:21.194Z,21.37
2018-08-13T08:03:21.181Z,21.37
2018-08-13T08:04:21.229Z,21.36
2018-08-13T08:05:21.252Z,21.32
2018-08-13T08:06:21.436Z,21.29
2018-08-13T08:07:21.325Z,21.32
2018-08-13T08:08:21.410Z,21.3
2018-08-13T08:09:22.020Z,21.27
2018-08-13T08:10:21.177Z,21.29
2018-08-13T08:11:21.245Z,21.27
2018-08-13T08:12:21.190Z,21.3
2018-08-13T08:13:21.220Z,21.27
2018-08-13T08:14:21.205Z,21.26
2018-08-13T08:15:21.203Z,21.26
2018-08-13T08:16:21.210Z,21.23
2018-08-13T08:17:21.241Z,21.24
2018-08-13T08:18:21.250Z,21.22
2018-08-13T08:19:21.283Z,21.24
2018-08-13T08:20:21.245Z,21.22
2018-08-13T08:21:21.428Z,21.22
2018-08-13T08:22:21.224Z,21.22
2018-08-13T08:23:21.179Z,21.22
2018-08-13T08:24:21.202Z,21.19
2018-08-13T08:25:21.215Z,21.19
2018-08-13T08:26:21.220Z,21.19
2018-08-13T08:27:21.220Z,21.19
2018-08-13T08:28:21.229Z,21.19
2018-08-13T08:29:21.699Z,21.17
2018-08-13T08:30:21.205Z,21.2
2018-08-13T08:31:21.255Z,21.17
2018-08-13T08:32:21.245Z,21.16
2018-08-13T08:33:21.192Z,21.15
2018-08-13T08:34:21.227Z,21.16
2018-08-13T08:35:21.200Z,21.15
2018-08-13T08:36:21.207Z,21.16
2018-08-13T08:37:21.207Z,21.15
2018-08-13T08:38:21.226Z,21.16
2018-08-13T08:39:21.230Z,21.16
2018-08-13T08:40:21.785Z,21.13
2018-08-13T08:41:21.262Z,21.13
2018-08-13T08:42:21.453Z,21.12
2018-08-13T08:43:21.334Z,21.13
2018-08-13T08:44:21.453Z,21.13
2018-08-13T08:45:21.333Z,21.12
2018-08-13T08:46:21.354Z,21.12
2018-08-13T08:47:21.296Z,21.13
2018-08-13T08:48:21.553Z,21.12
2018-08-13T08:49:21.352Z,21.13
2018-08-13T08:50:21.477Z,21.13
2018-08-13T08:51:21.226Z,21.17
2018-08-13T08:52:21.255Z,21.15
2018-08-13T08:53:21.224Z,21.16
2018-08-13T08:54:21.373Z,21.15
2018-08-13T08:55:21.298Z,21.15
2018-08-13T08:56:21.313Z,21.15
2018-08-13T08:57:21.344Z,21.16
2018-08-13T08:58:21.434Z,21.15
2018-08-13T08:59:21.279Z,21.15
2018-08-13T09:00:21.300Z,21.13
2018-08-13T09:01:21.323Z,21.16
2018-08-13T09:02:21.290Z,21.16
2018-08-13T09:03:21.239Z,21.15
2018-08-13T09:04:21.245Z,21.17
2018-08-13T09:05:21.267Z,21.16
2018-08-13T09:06:21.288Z,21.15
2018-08-13T09:07:21.306Z,21.17
2018-08-13T09:08:21.451Z,21.17
2018-08-13T09:09:21.477Z,21.16
2018-08-13T09:10:21.255Z,21.17
2018-08-13T09:11:21.453Z,21.16
2018-08-13T09:12:21.256Z,21.15
2018-08-13T09:13:21.273Z,21.17
2018-08-13T09:14:21.435Z,21.16
2018-08-13T09:15:21.415Z,21.16
2018-08-13T09:16:21.261Z,21.16
2018-08-13T09:17:21.471Z,21.16
2018-08-13T09:18:21.368Z,21.17
2018-08-13T09:19:21.454Z,21.19
2018-08-13T09:20:21.312Z,21.16
2018-08-13T09:21:21.321Z,21.19
2018-08-13T09:22:21.319Z,21.16
2018-08-13T09:23:21.296Z,21.1
2018-08-13T09:24:21.331Z,21.13
2018-08-13T09:25:21.419Z,21.13
2018-08-13T09:26:21.312Z,21.1
2018-08-13T09:27:21.274Z,21.1
2018-08-13T09:28:21.318Z,21.13
2018-08-13T09:29:21.378Z,21.1
2018-08-13T09:30:21.296Z,21.15
2018-08-13T09:31:21.327Z,21.12
2018-08-13T09:32:21.321Z,21.13
2018-08-13T09:33:21.468Z,21.15
2018-08-13T09:34:21.280Z,21.13
2018-08-13T09:35:21.367Z,21.12
2018-08-13T09:36:21.447Z,21.07
2018-08-13T09:37:21.402Z,21.15
2018-08-13T09:38:21.313Z,21.13
2018-08-13T09:39:21.320Z,21.12
2018-08-13T09:40:21.323Z,21.12
2018-08-13T09:41:21.335Z,21.12
2018-08-13T09:42:21.337Z,21.12
2018-08-13T09:43:21.269Z,21.12
2018-08-13T09:44:23.045Z,21.15
2018-08-13T09:45:21.286Z,21.15
2018-08-13T09:46:21.308Z,21.13
2018-08-13T09:47:21.268Z,21.16
2018-08-13T09:48:23.717Z,21.13
2018-08-13T09:49:21.313Z,21.15
2018-08-13T09:50:21.329Z,21.13
2018-08-13T09:51:21.532Z,21.15
2018-08-13T09:52:21.283Z,21.13
2018-08-13T09:53:21.305Z,21.13
2018-08-13T09:54:21.323Z,21.1
2018-08-13T09:55:21.317Z,21.07
2018-08-13T09:56:21.299Z,21.03
2018-08-13T09:57:21.285Z,21.02
2018-08-13T09:58:21.302Z,21.01
2018-08-13T09:59:21.285Z,21.01
2018-08-13T10:00:21.937Z,21.01
2018-08-13T10:01:21.470Z,21.02
2018-08-13T10:02:21.366Z,20.99
2018-08-13T10:03:21.312Z,20.99
2018-08-13T10:04:21.371Z,20.95
2018-08-13T10:05:21.311Z,20.89
2018-08-13T10:06:21.312Z,20.89
2018-08-13T10:07:21.377Z,20.88
2018-08-13T10:08:21.310Z,20.88
2018-08-13T10:09:22.069Z,20.85
2018-08-13T10:10:21.344Z,20.85
2018-08-13T10:11:21.420Z,20.84
2018-08-13T10:12:21.404Z,20.87
2018-08-13T10:13:21.370Z,20.84
2018-08-13T10:14:21.398Z,20.84
2018-08-13T10:15:21.412Z,20.85
2018-08-13T10:16:21.388Z,20.84
2018-08-13T10:17:21.355Z,20.84
2018-08-13T10:18:21.314Z,20.82
2018-08-13T10:19:21.362Z,20.82
2018-08-13T10:20:22.361Z,20.82
2018-08-13T10:21:25.555Z,20.79
2018-08-13T10:22:23.688Z,20.79
2018-08-13T10:23:21.407Z,20.79
2018-08-13T10:24:21.438Z,20.79
2018-08-13T10:25:21.334Z,20.78
2018-08-13T10:26:22.150Z,20.77
2018-08-13T10:27:22.755Z,20.77
2018-08-13T10:28:30.432Z,20.72
2018-08-13T10:29:24.552Z,20.77
2018-08-13T10:30:23.760Z,20.77
2018-08-13T10:31:21.788Z,20.72
2018-08-13T10:32:21.980Z,20.72
2018-08-13T10:33:21.339Z,20.7
2018-08-13T10:34:21.326Z,20.72
2018-08-13T10:35:21.539Z,20.72
2018-08-13T10:36:21.328Z,20.74
2018-08-13T10:37:22.832Z,20.75
2018-08-13T10:38:21.354Z,20.72
2018-08-13T10:39:21.389Z,20.72
2018-08-13T10:40:21.378Z,20.74
2018-08-13T10:41:21.450Z,20.72
2018-08-13T10:42:21.513Z,20.74
2018-08-13T10:43:21.392Z,20.74
2018-08-13T10:44:21.504Z,20.75
2018-08-13T10:45:21.555Z,20.77
2018-08-13T10:46:21.382Z,20.75
2018-08-13T10:47:21.585Z,20.75
2018-08-13T10:48:21.524Z,20.79
2018-08-13T10:49:21.379Z,20.74
2018-08-13T10:50:21.639Z,20.79
2018-08-13T10:51:21.439Z,20.78
2018-08-13T10:52:21.383Z,20.79
2018-08-13T10:53:21.392Z,20.79
2018-08-13T10:54:21.542Z,20.82
2018-08-13T10:55:21.411Z,20.82
2018-08-13T10:56:21.380Z,20.85
2018-08-13T10:57:21.528Z,20.88
2018-08-13T10:58:21.366Z,20.87
2018-08-13T10:59:21.394Z,20.89
2018-08-13T11:00:21.440Z,20.89
2018-08-13T11:01:21.501Z,20.88
2018-08-13T11:02:21.367Z,20.91
2018-08-13T11:03:21.373Z,20.88
2018-08-13T11:04:21.378Z,20.87
2018-08-13T11:05:21.708Z,20.85
2018-08-13T11:06:21.414Z,20.88
2018-08-13T11:07:21.359Z,20.87
2018-08-13T11:08:21.374Z,20.87
2018-08-13T11:09:21.393Z,20.91
2018-08-13T11:10:21.537Z,20.88
2018-08-13T11:11:21.405Z,20.89
2018-08-13T11:12:21.387Z,20.91
2018-08-13T11:13:21.519Z,20.91
2018-08-13T11:14:21.387Z,20.91
2018-08-13T11:15:21.384Z,20.94
2018-08-13T11:16:21.422Z,20.92
2018-08-13T11:17:21.396Z,20.96
2018-08-13T11:18:21.400Z,20.98
2018-08-13T11:19:21.398Z,20.99
2018-08-13T11:20:21.450Z,20.98
2018-08-13T11:21:21.413Z,21.02
2018-08-13T11:22:21.396Z,21.02
2018-08-13T11:23:21.444Z,21.01
2018-08-13T11:24:21.492Z,21.03
2018-08-13T11:25:21.588Z,21.06
2018-08-13T11:26:21.395Z,21.05
2018-08-13T11:27:21.710Z,21.07
2018-08-13T11:28:21.410Z,21.07
2018-08-13T11:29:21.416Z,21.06
2018-08-13T11:30:21.545Z,21.06
2018-08-13T11:31:22.049Z,21.06
2018-08-13T11:32:21.500Z,21.07
2018-08-13T11:33:21.427Z,21.07
2018-08-13T11:34:21.448Z,21.12
2018-08-13T11:35:21.466Z,21.17
2018-08-13T11:36:21.436Z,21.19
2018-08-13T11:37:21.439Z,21.22
2018-08-13T11:38:21.501Z,21.22
2018-08-13T11:39:21.424Z,21.23
2018-08-13T11:40:21.489Z,21.23
2018-08-13T11:41:21.521Z,21.26
2018-08-13T11:42:21.512Z,21.3
2018-08-13T11:43:21.451Z,21.32
2018-08-13T11:44:21.449Z,21.34
2018-08-13T11:45:21.534Z,21.3
2018-08-13T11:46:22.082Z,21.32
2018-08-13T11:47:21.439Z,21.3
2018-08-13T11:48:21.435Z,21.3
2018-08-13T11:49:21.491Z,21.29
2018-08-13T11:50:21.688Z,21.3
2018-08-13T11:51:21.534Z,21.33
2018-08-13T11:52:21.567Z,21.33
2018-08-13T11:53:21.534Z,21.34
2018-08-13T11:54:21.488Z,21.36
2018-08-13T11:55:21.469Z,21.34
2018-08-13T11:56:21.588Z,21.37
2018-08-13T11:57:21.475Z,21.39
2018-08-13T11:58:21.566Z,21.4
2018-08-13T11:59:21.762Z,21.41
2018-08-13T12:00:21.542Z,21.49
2018-08-13T12:01:21.611Z,21.5
2018-08-13T12:02:22.743Z,21.53
2018-08-13T12:03:21.512Z,21.53
2018-08-13T12:04:21.455Z,21.56
2018-08-13T12:05:21.625Z,21.57
2018-08-13T12:06:21.533Z,21.57
2018-08-13T12:07:21.706Z,21.6
2018-08-13T12:08:21.574Z,21.6
2018-08-13T12:09:21.781Z,21.62
2018-08-13T12:10:21.556Z,21.64
2018-08-13T12:11:21.456Z,21.6
2018-08-13T12:12:21.449Z,21.58
2018-08-13T12:13:21.491Z,21.61
2018-08-13T12:14:21.542Z,21.6
2018-08-13T12:15:21.508Z,21.61
2018-08-13T12:16:21.558Z,21.64
2018-08-13T12:17:21.613Z,21.62
2018-08-13T12:18:21.572Z,21.61
2018-08-13T12:19:21.625Z,21.62
2018-08-13T12:20:21.488Z,21.6
2018-08-13T12:21:21.539Z,21.58
2018-08-13T12:22:21.561Z,21.58
2018-08-13T12:23:21.545Z,21.6
2018-08-13T12:24:21.485Z,21.6
2018-08-13T12:25:21.530Z,21.6
2018-08-13T12:26:21.604Z,21.62
2018-08-13T12:27:21.480Z,21.6
2018-08-13T12:28:21.501Z,21.6
2018-08-13T12:29:21.494Z,21.61
2018-08-13T12:30:21.528Z,21.61
2018-08-13T12:31:21.512Z,21.61
2018-08-13T12:32:21.486Z,21.61
2018-08-13T12:33:21.546Z,21.6
2018-08-13T12:34:21.601Z,21.61
2018-08-13T12:35:21.526Z,21.62
2018-08-13T12:36:21.571Z,21.6
2018-08-13T12:37:21.550Z,21.61
2018-08-13T12:38:21.476Z,21.61
2018-08-13T12:39:21.504Z,21.58
2018-08-13T12:40:21.493Z,21.5
2018-08-13T12:41:21.543Z,21.53
2018-08-13T12:42:21.512Z,21.53
2018-08-13T12:43:21.704Z,21.51
2018-08-13T12:44:21.556Z,21.5
2018-08-13T12:45:21.585Z,21.44
2018-08-13T12:46:21.604Z,21.44
2018-08-13T12:47:21.619Z,21.5
2018-08-13T12:48:21.569Z,21.53
2018-08-13T12:49:21.692Z,21.49
2018-08-13T12:50:21.544Z,21.47
2018-08-13T12:51:21.579Z,21.5
2018-08-13T12:52:21.523Z,21.51
2018-08-13T12:53:21.512Z,21.47
2018-08-13T12:54:21.685Z,21.53